Nearby METAR Reports

 

KPTW - Pottstown, Pennsylvania, USA
Distance from station: NE 6mi, 10km
Updated: 09/23/2018 8:54am
Light rain, Mostly cloudy
Light rain, Mostly cloudy
 Wind from NE
Wind: NE 3 mph , 6 km/h
Temperature: 55°F , 13°C
Dew Point: 55°F , 13°C
Humidity: 100%
Barometer: 30.24 inHg , 1024 hPa
Summary: Light Rain
Clouds: Mostly Cloudy
Visibility: 7 miles , 11 km
Cloud details: Mostly Cloudy 11000 ft
2018/09/23 12:54 KPTW 231254Z AUTO 04003KT 7SM -RA BKN110 13/13 A3024 RMK AO2 SLP238 P0001 T01330128
KMQS - Coatesville, Pennsylvania, USA
Distance from station: SW 18mi, 29km
Updated: 09/23/2018 8:55am
Light rain, Clear
Light rain, Clear
 Wind from NE
Wind: NE 3 mph , 6 km/h
Temperature: 55°F , 13°C
Dew Point: 55°F , 13°C
Humidity: 100%
Barometer: 30.23 inHg , 1023.7 hPa
Summary: Light Rain
Clouds: Clear
Visibility: 10 miles , 16 km
2018/09/23 12:55 KMQS 231255Z AUTO 04003KT 10SM -RA CLR 13/13 A3023 RMK AO2 P0003
 
KLOM - Philly Wings F, Pennsylvania, USA
Distance from station: E 19mi, 31km
Updated: 09/23/2018 8:55am
Partly Cloudy
Partly Cloudy
 Wind from calm
Wind: Calm
Temperature: 55°F , 13°C
Dew Point: 55°F , 13°C
Humidity: 100%
Barometer: 30.24 inHg , 1024 hPa
Clouds: Partly Cloudy
Visibility: 10 miles , 16 km
Cloud details: Partly Cloudy 3500 ft
Partly Cloudy 4400 ft
2018/09/23 12:55 KLOM 231255Z AUTO 00000KT 10SM SCT035 SCT044 13/13 A3024 RMK AO1
KRDG - Reading, Pennsylvania, USA
Distance from station: NW 22mi, 36km
Updated: 09/23/2018 8:54am
Light rain, Overcast
Light rain, Overcast
 Wind from calm
Wind: Calm
Temperature: 57°F , 14°C
Dew Point: 57°F , 14°C
Humidity: 100%
Barometer: 30.21 inHg , 1023 hPa
Summary: Light Rain
Clouds: Overcast
Visibility: 10 miles , 16 km
Cloud details: Few Clouds 4200 ft
Overcast 11000 ft
2018/09/23 12:54 KRDG 231254Z 00000KT 10SM -RA FEW042 OVC110 14/14 A3021 RMK AO2 SLP235 P0001 T01390139
 
KUKT - Quakertown Arp, Pennsylvania, USA
Distance from station: NE 22mi, 36km
Updated: 09/23/2018 8:55am
Clear
Clear
 Wind from calm
Wind: Calm
Temperature: 55°F , 13°C
Dew Point: 55°F , 13°C
Humidity: 100%
Barometer: 30.24 inHg , 1024 hPa
Clouds: Clear
Visibility: 10 miles , 16 km
2018/09/23 12:55 KUKT 231255Z AUTO 00000KT 10SM CLR 13/13 A3024 RMK A01
KXLL - Allentown Queen, Pennsylvania, USA
Distance from station: NNE 28mi, 46km
Updated: 09/23/2018 8:55am
Partly Cloudy
Partly Cloudy
 Wind from N
Wind: N 5 mph , 7 km/h
Barometer: 30.25 inHg , 1024.4 hPa
Clouds: Partly Cloudy
Visibility: 10 miles , 16 km
Cloud details: Partly Cloudy 12000 ft
2018/09/23 12:55 KXLL 231255Z AUTO 01004KT 10SM SCT120 A3025 RMK AO2
 
KDYL - Doylestown, Pennsylvania, USA
Distance from station: ENE 29mi, 47km
Updated: 09/23/2018 8:54am
Mostly Cloudy
Mostly Cloudy
 Wind from NNE
Wind: NNE 3 mph , 6 km/h
Temperature: 55°F , 13°C
Dew Point: 55°F , 13°C
Humidity: 100%
Barometer: 30.22 inHg , 1023.4 hPa
Clouds: Mostly Cloudy
Visibility: 10 miles , 16 km
Cloud details: Few Clouds 8000 ft
Mostly Cloudy 10000 ft
2018/09/23 12:54 KDYL 231254Z AUTO 03003KT 10SM FEW080 BKN100 13/13 A3022 RMK AO2 RAE49 SLP234 P0001 T01330128
KPHL - Philadelphia, Pennsylvania, USA
Distance from station: SE 30mi, 48km
Updated: 09/23/2018 8:54am
Light rain, Overcast
Light rain, Overcast
 Wind from NE
Wind: NE 7 mph , 11 km/h
Temperature: 61°F , 16°C
Dew Point: 55°F , 13°C
Humidity: 83%
Barometer: 30.22 inHg , 1023.4 hPa
Summary: Light Rain
Clouds: Overcast
Visibility: 10 miles , 16 km
Cloud details: Few Clouds 8000 ft
Partly Cloudy 11000 ft
Overcast 13000 ft
2018/09/23 12:54 KPHL 231254Z 04006KT 10SM -RA FEW080 SCT110 OVC130 16/13 A3022 RMK AO2 SLP233 P0000 T01560133 $
 
KPNE - Philadelphia/Ne, Pennsylvania, USA
Distance from station: E 33mi, 53km
Updated: 09/23/2018 8:54am
Light rain, Partly cloudy
Light rain, Partly cloudy
 Wind from NE
Wind: NE 6 mph , 9 km/h
Temperature: 61°F , 16°C
Dew Point: 55°F , 13°C
Humidity: 83%
Barometer: 30.23 inHg , 1023.7 hPa
Summary: Light Rain
Clouds: Partly Cloudy
Visibility: 10 miles , 16 km
Cloud details: Partly Cloudy 12000 ft
2018/09/23 12:54 KPNE 231254Z 04005KT 10SM -RA SCT120 16/13 A3023 RMK AO2 SLP237 P0001 T01610128
KABE - Allentown, Pennsylvania, USA
Distance from station: NNE 34mi, 55km
Updated: 09/23/2018 8:51am
Few Clouds
Few Clouds
 Wind from E
Wind: E 6 mph , 9 km/h
Temperature: 57°F , 14°C
Dew Point: 50°F , 10°C
Humidity: 77%
Barometer: 30.24 inHg , 1024 hPa
Clouds: Few Clouds
Visibility: 10 miles , 16 km
Cloud details: Few Clouds 12000 ft
2018/09/23 12:51 KABE 231251Z 08005KT 10SM FEW120 14/10 A3024 RMK AO2 SLP239 T01440100
 
KILG - Wilmington, Delaware, USA
Distance from station: S 35mi, 56km
Updated: 09/23/2018 8:51am
Light rain, Mostly cloudy
Light rain, Mostly cloudy
 Wind from NE
Wind: NE 6 mph , 9 km/h
Temperature: 61°F , 16°C
Dew Point: 57°F , 14°C
Humidity: 88%
Barometer: 30.21 inHg , 1023 hPa
Summary: Light Rain
Clouds: Mostly Cloudy
Visibility: 10 miles , 16 km
Cloud details: Mostly Cloudy 12000 ft
2018/09/23 12:51 KILG 231251Z 05005KT 10SM -RA BKN120 16/14 A3021 RMK AO2 SLP231 P0003 T01560139
KLNS - Lancaster, Pennsylvania, USA
Distance from station: W 36mi, 57km
Updated: 09/23/2018 8:53am
Light rain, Mostly cloudy
Light rain, Mostly cloudy
 Wind from ENE
Wind: ENE 3 mph , 6 km/h
Temperature: 57°F , 14°C
Dew Point: 55°F , 13°C
Humidity: 94%
Barometer: 30.22 inHg , 1023.4 hPa
Summary: Light Rain
Clouds: Mostly Cloudy
Visibility: 10 miles , 16 km
Cloud details: Mostly Cloudy 11000 ft
2018/09/23 12:53 KLNS 231253Z 06003KT 10SM -RA BKN110 14/13 A3022 RMK AO2 RAB1156 SLP232 P0001 T01440133
 
KTTN - Trenton, New Jersey, USA
Distance from station: E 44mi, 70km
Updated: 09/23/2018 8:53am
Light rain, Mostly cloudy
Light rain, Mostly cloudy
 Wind from N
Wind: N 5 mph , 7 km/h
Temperature: 57°F , 14°C
Dew Point: 54°F , 12°C
Humidity: 88%
Barometer: 30.22 inHg , 1023.4 hPa
Summary: Light Rain
Clouds: Mostly Cloudy
Visibility: 10 miles , 16 km
Cloud details: Mostly Cloudy 11000 ft
2018/09/23 12:53 KTTN 231253Z 01004KT 10SM -RA BKN110 14/12 A3022 RMK AO2 SLP228 P0001 T01440122
KVAY - Mount Holly, New Jersey, USA
Distance from station: ESE 45mi, 73km
Updated: 09/23/2018 8:54am
Light rain, Partly cloudy
Light rain, Partly cloudy
 Wind from N
Wind: N 8 mph , 13 km/h
Temperature: 57°F , 14°C
Dew Point: 57°F , 14°C
Humidity: 100%
Barometer: 30.21 inHg , 1023 hPa
Summary: Light Rain
Clouds: Partly Cloudy
Visibility: 10 miles , 16 km
Cloud details: Partly Cloudy 11000 ft
2018/09/23 12:54 KVAY 231254Z AUTO 01007KT 10SM -RA SCT110 14/14 A3021 RMK AO2 SLP230 P0002 T01440139
 
KMUI - Muir Aaf/Indiant, Pennsylvania, USA
Distance from station: WNW 52mi, 84km
Updated: 09/23/2018 8:56am
Few Clouds
Few Clouds
 Wind from calm
Wind: Calm
Temperature: 57°F , 14°C
Dew Point: 54°F , 12°C
Humidity: 88%
Barometer: 30.23 inHg , 1023.7 hPa
Clouds: Few Clouds
Visibility: 10 miles , 16 km
Cloud details: Few Clouds 11000 ft
2018/09/23 12:56 KMUI 231256Z AUTO 00000KT 10SM FEW110 14/12 A3023 RMK AO2 DZB04E05RAB05E18DZB18E21 SLP240 P0000 T01350115 $
KAPG - Aberdeen/Phillip, Maryland, USA
Distance from station: SSW 56mi, 91km
Updated: 09/21/2018 7:46pm
NOT Current
Overcast
Overcast
 Wind from S
Wind: S 7 mph , 11 km/h
Temperature: 72°F , 22°C
Dew Point: 66°F , 19°C
Humidity: 83%
Barometer: 30.02 inHg , 1016.6 hPa
Clouds: Overcast
Visibility: 7 miles , 11 km
Cloud details: Overcast 2500 ft
2018/09/21 23:46 KAPG 212346Z 17006KT 7SM OVC025 22/19 A3002 RMK SLP169 57023
 
KWRI - Wrightst/Mcguire, New Jersey, USA
Distance from station: E 56mi, 91km
Updated: 09/23/2018 8:56am
Light rain, Mostly cloudy
Light rain, Mostly cloudy
 Wind from NNE
Wind: NNE 6 mph , 9 km/h
Temperature: 59°F , 15°C
Dew Point: 57°F , 14°C
Humidity: 94%
Barometer: 30.19 inHg , 1022.4 hPa
Summary: Light Rain
Clouds: Mostly Cloudy
Visibility: 10 miles , 16 km
Cloud details: Partly Cloudy 1000 ft
Mostly Cloudy 6000 ft
2018/09/23 12:56 KWRI 231256Z 02005KT 10SM -RA SCT010 BKN060 15/14 A3019 RMK AO2A SLP223 P0002 T01520141 $
KSMQ - Somerville, New Jersey, USA
Distance from station: ENE 59mi, 96km
Updated: 09/23/2018 8:53am
Few Clouds
Few Clouds
 Wind from N
Wind: N 6 mph , 9 km/h
Temperature: 57°F , 14°C
Dew Point: 52°F , 11°C
Humidity: 82%
Barometer: 30.21 inHg , 1023 hPa
Clouds: Few Clouds
Visibility: 10 miles , 16 km
Cloud details: Few Clouds 3500 ft
Few Clouds 12000 ft
2018/09/23 12:53 KSMQ 231253Z AUTO 01005KT 10SM FEW035 FEW120 14/11 A3021 RMK AO2 SLP232 T01440111
 
KMDT - Middletown, Pennsylvania, USA
Distance from station: W 60mi, 97km
Updated: 09/23/2018 8:56am
Light rain, Overcast
Light rain, Overcast
 Wind from calm
Wind: Calm
Temperature: 57°F , 14°C
Dew Point: 54°F , 12°C
Humidity: 88%
Barometer: 30.22 inHg , 1023.4 hPa
Summary: Light Rain
Clouds: Overcast
Visibility: 10 miles , 16 km
Cloud details: Mostly Cloudy 10000 ft
Overcast 13000 ft
2018/09/23 12:56 KMDT 231256Z 00000KT 10SM -RA BKN100 OVC130 14/12 A3022 RMK AO2 RAB45 SLP232 P0000 T01440122 $
KMIV - Millville, New Jersey, USA
Distance from station: SSE 63mi, 101km
Updated: 09/23/2018 8:54am
Overcast
Overcast
 Wind from NE
Wind: NE 5 mph , 7 km/h
Temperature: 63°F , 17°C
Dew Point: 57°F , 14°C
Humidity: 83%
Barometer: 30.20 inHg , 1022.7 hPa
Clouds: Overcast
Visibility: 10 miles , 16 km
Cloud details: Overcast 9500 ft
2018/09/23 12:54 KMIV 231254Z AUTO 04004KT 10SM OVC095 17/14 A3020 RMK AO2 SLP225 T01720139